Time;durP1;ratioP1;P1;durP2;ratioP2;P2;SDS_P1;SDS_P2;PMS_P1;PMS_P2;Temp;Humidity;BMP_temperature;BMP_pressure;BME280_temperature;BME280_humidity;BME280_pressure;Samples;Min_cycle;Max_cycle;Signal;HPM_P1;HPM_P2
2022/06/06 00:00:01;;;;;;;4.38;3.97;;;18.60;80.40;;;;;;5073586;28;20761;-68
2022/06/06 00:02:30;;;;;;;5.97;3.83;;;18.70;80.50;;;;;;5074347;28;20409;-69
2022/06/06 00:04:57;;;;;;;4.78;3.97;;;18.70;80.70;;;;;;5069415;28;20228;-68
2022/06/06 00:07:25;;;;;;;5.38;4.00;;;18.60;80.90;;;;;;5075062;28;20208;-68
2022/06/06 00:09:52;;;;;;;4.78;4.25;;;18.60;81.00;;;;;;5075438;28;20201;-70
2022/06/06 00:12:20;;;;;;;4.18;3.78;;;18.60;81.00;;;;;;5071483;28;20212;-68
2022/06/06 00:14:47;;;;;;;4.40;4.00;;;18.60;81.20;;;;;;5066678;28;20201;-69
2022/06/06 00:17:15;;;;;;;6.32;3.80;;;18.60;81.20;;;;;;5067713;28;20244;-68
2022/06/06 00:19:42;;;;;;;4.30;4.00;;;18.60;81.30;;;;;;5072900;28;20228;-69
2022/06/06 00:22:09;;;;;;;4.20;3.90;;;18.60;81.40;;;;;;5073982;28;20316;-68
2022/06/06 00:24:36;;;;;;;5.07;3.95;;;18.60;81.50;;;;;;5074477;28;20216;-68
2022/06/06 00:27:04;;;;;;;4.53;4.13;;;18.60;81.60;;;;;;5062542;28;20205;-69
2022/06/06 00:29:35;;;;;;;5.05;3.90;;;18.60;81.80;;;;;;5065871;28;20290;-68
2022/06/06 00:34:51;;;;;;;4.63;4.22;;;18.60;82.10;;;;;;5075476;28;20247;-69
2022/06/06 00:37:23;;;;;;;4.97;3.95;;;18.60;82.00;;;;;;5074988;28;20201;-69
2022/06/06 00:39:50;;;;;;;6.72;4.32;;;18.60;82.30;;;;;;5076087;28;20242;-69
2022/06/06 00:42:22;;;;;;;5.07;4.47;;;18.60;82.50;;;;;;5073709;28;20225;-69
2022/06/06 00:44:49;;;;;;;4.47;4.07;;;18.60;82.80;;;;;;5073977;28;20209;-68
2022/06/06 00:47:24;;;;;;;6.60;4.30;;;18.60;83.00;;;;;;5072755;28;20628;-70
2022/06/06 00:49:55;;;;;;;4.63;4.22;;;18.60;83.20;;;;;;5069866;28;20211;-69
2022/06/06 00:52:25;;;;;;;5.68;4.80;;;18.60;83.40;;;;;;5081041;28;20208;-69
2022/06/06 00:54:56;;;;;;;4.57;4.18;;;18.60;83.60;;;;;;5072382;28;20208;-69
2022/06/06 00:57:27;;;;;;;4.82;4.32;;;18.60;83.70;;;;;;5078284;28;20205;-68
2022/06/06 00:59:55;;;;;;;4.25;3.88;;;18.60;83.70;;;;;;5080762;28;20208;-68
2022/06/06 01:02:22;;;;;;;4.50;4.10;;;18.60;83.80;;;;;;5076533;28;20221;-71
2022/06/06 01:04:49;;;;;;;5.15;4.50;;;18.50;83.80;;;;;;5079491;28;20213;-70
2022/06/06 01:07:17;;;;;;;4.60;4.20;;;18.50;83.80;;;;;;5077132;28;20212;-70
2022/06/06 01:09:44;;;;;;;6.53;4.25;;;18.50;84.20;;;;;;5071898;28;20208;-71
2022/06/06 01:12:14;;;;;;;5.25;4.15;;;18.50;84.40;;;;;;5076358;28;20208;-71
2022/06/06 01:14:45;;;;;;;5.05;4.10;;;18.50;84.50;;;;;;5070326;28;20267;-70
2022/06/06 01:17:23;;;;;;;5.07;4.57;;;18.50;84.70;;;;;;5074119;28;20244;-71
2022/06/06 01:20:22;;;;;;;4.75;4.32;;;18.40;84.70;;;;;;5075237;28;20568;-70
2022/06/06 01:23:20;;;;;;;6.80;4.30;;;18.40;84.90;;;;;;5075210;28;20233;-71
2022/06/06 01:26:21;;;;;;;5.03;4.57;;;18.40;85.00;;;;;;5068445;28;20220;-71
2022/06/06 01:28:55;;;;;;;4.75;4.35;;;18.40;85.00;;;;;;5077415;28;20229;-70
2022/06/06 01:31:31;;;;;;;3.70;3.40;;;18.30;84.80;;;;;;5074442;28;20557;-70
2022/06/06 01:34:01;;;;;;;4.53;4.13;;;18.30;84.80;;;;;;5072873;28;20546;-70
2022/06/06 01:36:30;;;;;;;4.38;3.97;;;18.30;85.00;;;;;;5072909;28;20208;-69
2022/06/06 01:38:59;;;;;;;4.25;3.88;;;18.20;84.70;;;;;;5079906;28;20209;-70
2022/06/06 01:41:32;;;;;;;6.03;4.47;;;18.30;85.00;;;;;;5078591;28;20650;-70
2022/06/06 01:44:06;;;;;;;4.57;4.07;;;18.20;85.00;;;;;;5078667;28;20681;-70
2022/06/06 01:46:36;;;;;;;4.22;3.83;;;18.20;85.10;;;;;;5074594;28;20212;-70
2022/06/06 01:49:05;;;;;;;4.15;3.75;;;18.20;85.00;;;;;;5073297;28;20234;-70
2022/06/06 01:51:33;;;;;;;3.92;3.63;;;18.30;85.10;;;;;;5067178;28;20201;-70
2022/06/06 01:54:00;;;;;;;3.63;3.40;;;18.30;85.10;;;;;;5075681;28;20198;-70
2022/06/06 01:56:31;;;;;;;4.40;4.00;;;18.30;85.00;;;;;;5078869;28;20213;-70
2022/06/06 01:59:00;;;;;;;4.07;3.78;;;18.30;85.00;;;;;;5074082;28;20193;-70
2022/06/06 02:01:27;;;;;;;7.43;4.28;;;18.30;85.10;;;;;;5069926;28;20701;-70
2022/06/06 02:03:54;;;;;;;4.30;3.90;;;18.30;85.10;;;;;;5077245;28;20212;-70
2022/06/06 02:06:21;;;;;;;5.05;4.13;;;18.30;85.10;;;;;;5069260;28;20209;-71
2022/06/06 02:08:50;;;;;;;6.30;4.35;;;18.20;85.00;;;;;;5072169;28;20213;-71
2022/06/06 02:11:19;;;;;;;4.00;3.70;;;18.20;85.10;;;;;;5064925;28;20643;-70
2022/06/06 02:13:46;;;;;;;4.65;3.75;;;18.20;85.30;;;;;;5075234;28;20246;-70
2022/06/06 02:16:14;;;;;;;4.30;3.70;;;18.20;85.50;;;;;;5080770;28;20222;-71
2022/06/06 02:18:41;;;;;;;5.43;4.68;;;18.20;85.70;;;;;;5076429;28;20216;-72
2022/06/06 02:21:07;;;;;;;4.93;4.40;;;18.20;85.80;;;;;;5065751;28;20206;-71
2022/06/06 02:23:35;;;;;;;4.47;4.07;;;18.20;86.00;;;;;;5074143;28;20205;-70
2022/06/06 02:26:01;;;;;;;4.80;4.30;;;18.20;86.00;;;;;;5077517;28;20225;-70
2022/06/06 02:28:28;;;;;;;4.93;4.13;;;18.20;86.20;;;;;;5073919;28;20266;-70
2022/06/06 02:30:56;;;;;;;4.53;4.03;;;18.10;86.30;;;;;;5074554;28;20232;-71
2022/06/06 02:33:25;;;;;;;4.55;4.03;;;18.10;86.60;;;;;;5076005;28;20200;-70
2022/06/06 02:35:51;;;;;;;6.22;4.55;;;18.10;86.70;;;;;;5077058;28;20288;-70
2022/06/06 02:38:18;;;;;;;4.68;4.15;;;18.00;86.90;;;;;;5067570;28;20198;-70
2022/06/06 02:40:45;;;;;;;5.78;4.40;;;18.10;87.10;;;;;;5064108;28;20209;-70
2022/06/06 02:43:13;;;;;;;5.25;4.75;;;18.00;87.40;;;;;;5065395;28;20329;-70
2022/06/06 02:45:40;;;;;;;5.90;4.65;;;18.00;87.50;;;;;;5074587;28;20201;-70
2022/06/06 02:48:09;;;;;;;5.85;4.75;;;18.00;87.60;;;;;;5075503;28;20746;-70
2022/06/06 02:50:38;;;;;;;5.95;4.40;;;18.00;87.90;;;;;;5072378;28;20267;-69
2022/06/06 02:53:06;;;;;;;5.07;4.60;;;18.00;88.00;;;;;;5074487;28;20194;-70
2022/06/06 02:55:33;;;;;;;5.07;4.57;;;18.10;88.30;;;;;;5075242;28;20266;-69
2022/06/06 02:58:01;;;;;;;5.32;4.82;;;18.10;88.20;;;;;;5074035;28;20206;-71
2022/06/06 03:00:31;;;;;;;5.85;5.05;;;18.10;88.40;;;;;;5066360;28;20224;-70
2022/06/06 03:02:59;;;;;;;4.90;4.20;;;18.10;88.40;;;;;;5069006;28;20209;-71
2022/06/06 03:05:35;;;;;;;5.90;4.75;;;18.20;88.50;;;;;;5075206;28;20213;-70
2022/06/06 03:08:18;;;;;;;6.35;5.03;;;18.10;88.50;;;;;;5069772;28;20221;-70
2022/06/06 03:10:56;;;;;;;6.30;5.10;;;18.20;88.60;;;;;;5058344;28;20228;-70
2022/06/06 03:13:36;;;;;;;5.60;5.10;;;18.20;88.60;;;;;;5075715;28;20197;-71
2022/06/06 03:22:18;;;;;;;7.03;5.47;;;18.20;88.90;;;;;;5076001;28;20232;-71
2022/06/06 03:24:59;;;;;;;6.22;5.53;;;18.30;89.00;;;;;;5075795;28;20653;-71
2022/06/06 03:27:39;;;;;;;5.85;5.25;;;18.40;89.80;;;;;;5068500;28;20197;-69
2022/06/06 03:30:10;;;;;;;5.25;4.82;;;18.40;88.70;;;;;;5069605;28;20279;-70
2022/06/06 03:32:52;;;;;;;6.43;5.50;;;18.50;88.80;;;;;;5071841;28;20582;-71
2022/06/06 03:35:33;;;;;;;5.75;5.18;;;18.50;88.80;;;;;;5075754;28;20615;-71
2022/06/06 03:38:05;;;;;;;5.68;5.15;;;18.50;88.90;;;;;;5072208;28;20204;-71
2022/06/06 03:40:43;;;;;;;5.63;4.93;;;18.50;88.80;;;;;;5066274;28;20291;-71
2022/06/06 03:43:23;;;;;;;5.80;5.30;;;18.50;89.20;;;;;;5070975;28;20218;-71
2022/06/06 03:45:54;;;;;;;7.30;5.22;;;18.50;88.90;;;;;;5061695;28;20641;-70
2022/06/06 03:48:34;;;;;;;6.30;4.88;;;18.50;89.10;;;;;;5073693;28;20208;-70
2022/06/06 03:51:06;;;;;;;6.30;5.30;;;18.50;89.10;;;;;;5063560;28;20585;-71
2022/06/06 03:53:43;;;;;;;5.63;5.13;;;18.40;89.40;;;;;;5063053;28;20216;-70
2022/06/06 03:56:25;;;;;;;6.05;5.55;;;18.40;89.70;;;;;;5075146;28;20247;-70
2022/06/06 03:58:53;;;;;;;5.85;5.35;;;18.50;90.00;;;;;;5061886;28;20573;-71
2022/06/06 04:01:22;;;;;;;6.38;5.57;;;18.40;90.00;;;;;;5073548;28;20573;-70
2022/06/06 04:03:50;;;;;;;5.97;5.22;;;18.50;90.10;;;;;;5074339;28;20291;-71
2022/06/06 04:06:18;;;;;;;5.85;5.35;;;18.60;90.20;;;;;;5075199;28;20697;-70
2022/06/06 04:08:45;;;;;;;5.97;5.47;;;18.60;90.20;;;;;;5074749;28;20217;-70
2022/06/06 04:11:26;;;;;;;6.95;5.88;;;18.60;90.30;;;;;;5075736;28;20209;-70
2022/06/06 04:14:02;;;;;;;5.47;4.97;;;18.70;90.40;;;;;;5072952;28;20648;-70
2022/06/06 04:16:38;;;;;;;10.55;5.43;;;18.80;90.50;;;;;;5068764;28;20346;-70
2022/06/06 04:19:28;;;;;;;6.57;5.32;;;18.80;90.40;;;;;;5075494;28;20295;-70
2022/06/06 04:22:11;;;;;;;5.57;5.07;;;18.90;90.40;;;;;;5074906;28;20201;-70
2022/06/06 04:24:51;;;;;;;5.60;5.13;;;18.90;90.30;;;;;;5075130;28;20216;-70
2022/06/06 04:27:29;;;;;;;6.22;5.20;;;19.00;90.20;;;;;;5062960;28;20217;-70
2022/06/06 04:30:02;;;;;;;6.38;5.45;;;19.00;90.20;;;;;;5070558;28;20221;-70
2022/06/06 04:32:42;;;;;;;7.97;6.03;;;19.10;90.20;;;;;;5074272;28;20201;-71
2022/06/06 04:35:18;;;;;;;5.55;4.85;;;19.10;90.10;;;;;;5074204;28;20201;-70
2022/06/06 04:37:50;;;;;;;6.28;5.47;;;19.10;90.10;;;;;;5058366;28;20205;-70
2022/06/06 04:40:35;;;;;;;5.63;4.88;;;19.20;90.00;;;;;;5071942;28;20205;-70
2022/06/06 04:43:11;;;;;;;5.47;4.97;;;19.20;90.00;;;;;;5071620;28;20228;-70
2022/06/06 04:45:43;;;;;;;7.28;5.00;;;19.20;89.90;;;;;;5068658;28;20214;-70
2022/06/06 04:48:11;;;;;;;5.72;5.13;;;19.20;90.00;;;;;;5069913;28;20210;-70
2022/06/06 04:50:42;;;;;;;5.60;5.10;;;19.30;90.00;;;;;;5074512;28;20216;-70
2022/06/06 04:53:14;;;;;;;5.60;5.00;;;19.40;90.00;;;;;;5068204;28;20202;-71
2022/06/06 04:55:43;;;;;;;5.65;4.97;;;19.40;90.00;;;;;;5075011;28;20205;-71
2022/06/06 04:58:12;;;;;;;6.57;4.97;;;19.50;90.00;;;;;;5067845;28;20552;-70
2022/06/06 05:00:42;;;;;;;5.38;4.88;;;19.50;89.90;;;;;;5068514;28;20228;-70
2022/06/06 05:03:09;;;;;;;7.22;6.07;;;19.60;89.90;;;;;;5075433;28;20233;-71
2022/06/06 05:05:50;;;;;;;6.85;6.15;;;19.60;89.50;;;;;;5074935;28;20646;-71
2022/06/06 05:08:33;;;;;;;6.50;5.90;;;19.60;89.40;;;;;;5064334;28;20213;-71
2022/06/06 05:11:14;;;;;;;7.53;6.82;;;19.70;89.70;;;;;;5069989;28;20210;-72
2022/06/06 05:14:07;;;;;;;8.13;6.63;;;19.70;89.70;;;;;;5066814;28;20201;-71
2022/06/06 05:16:50;;;;;;;10.85;7.90;;;19.70;89.70;;;;;;5062094;28;20260;-71
2022/06/06 05:19:42;;;;;;;12.20;9.30;;;19.70;89.70;;;;;;5076680;28;20678;-70
2022/06/06 05:22:29;;;;;;;9.82;8.15;;;19.70;90.00;;;;;;5063534;28;20205;-71
2022/06/06 05:25:23;;;;;;;11.43;6.93;;;19.70;89.90;;;;;;5075512;28;20680;-70
2022/06/06 05:28:06;;;;;;;9.02;7.32;;;19.80;90.00;;;;;;5067414;28;20202;-71
2022/06/06 05:30:41;;;;;;;8.55;7.05;;;19.80;89.60;;;;;;5062919;28;20225;-70
2022/06/06 05:33:13;;;;;;;8.93;8.10;;;20.00;89.40;;;;;;5070354;28;20279;-70
2022/06/06 05:36:22;;;;;;;9.70;7.13;;;20.10;89.20;;;;;;5076337;28;20197;-71
2022/06/06 05:39:23;;;;;;;7.43;6.72;;;20.10;88.80;;;;;;5040984;28;20665;-70
2022/06/06 05:42:05;;;;;;;7.13;6.25;;;20.20;88.20;;;;;;5039520;28;20213;-70
2022/06/06 05:44:43;;;;;;;7.22;6.30;;;20.30;87.80;;;;;;5058553;28;20641;-70
2022/06/06 05:47:21;;;;;;;6.63;6.00;;;20.30;87.40;;;;;;5074857;28;20194;-69
2022/06/06 05:50:02;;;;;;;6.88;6.20;;;20.40;87.10;;;;;;5077198;28;20226;-70
2022/06/06 05:52:47;;;;;;;6.68;6.07;;;20.50;86.90;;;;;;5080325;28;20590;-70
2022/06/06 05:55:31;;;;;;;5.68;5.18;;;20.60;87.00;;;;;;5076595;28;20205;-70
2022/06/06 05:58:22;;;;;;;6.47;5.88;;;20.70;86.50;;;;;;5077411;28;20556;-69
2022/06/06 06:01:02;;;;;;;6.72;6.05;;;20.90;86.30;;;;;;5076411;28;20240;-69
2022/06/06 06:04:00;;;;;;;5.95;5.45;;;21.00;86.00;;;;;;5071267;28;20274;-71
2022/06/06 06:06:32;;;;;;;9.73;6.00;;;21.10;85.30;;;;;;5069420;28;20731;-69
2022/06/06 06:09:24;;;;;;;7.15;5.45;;;21.20;85.10;;;;;;5079504;28;20291;-70
2022/06/06 06:12:09;;;;;;;12.23;6.28;;;21.30;84.70;;;;;;5083513;28;20208;-71
2022/06/06 06:14:47;;;;;;;7.13;4.95;;;21.40;84.60;;;;;;5085067;28;20208;-71
2022/06/06 06:17:18;;;;;;;6.18;4.90;;;21.50;84.20;;;;;;5077580;28;20307;-71
2022/06/06 06:19:51;;;;;;;5.60;4.97;;;21.60;83.60;;;;;;5073264;28;20231;-69
2022/06/06 06:22:20;;;;;;;6.30;4.40;;;21.70;83.10;;;;;;5066519;28;20212;-70
2022/06/06 06:24:49;;;;;;;4.50;4.10;;;21.80;82.50;;;;;;5075713;28;20650;-70
2022/06/06 06:27:18;;;;;;;6.15;5.05;;;21.80;81.80;;;;;;5078315;28;20205;-71
2022/06/06 06:29:44;;;;;;;7.43;4.93;;;21.80;81.70;;;;;;5074452;28;20248;-72
2022/06/06 06:32:36;;;;;;;9.05;4.45;;;21.90;82.60;;;;;;5065663;28;21454;-72
2022/06/06 06:35:14;;;;;;;5.22;4.03;;;21.90;81.80;;;;;;5067863;28;20284;-70
2022/06/06 06:38:06;;;;;;;6.60;4.30;;;22.00;81.80;;;;;;5069937;28;20208;-70
2022/06/06 06:40:47;;;;;;;4.90;4.50;;;22.10;81.20;;;;;;5031494;28;20208;-71
2022/06/06 06:43:25;;;;;;;6.32;4.72;;;22.20;81.00;;;;;;5075998;28;20217;-70
2022/06/06 06:45:54;;;;;;;7.68;4.70;;;22.20;80.20;;;;;;5073416;28;20200;-70
2022/06/06 06:48:24;;;;;;;5.65;4.85;;;22.20;80.10;;;;;;5076384;28;20206;-69
2022/06/06 06:51:00;;;;;;;4.88;4.47;;;22.30;80.10;;;;;;5073017;28;20205;-71
2022/06/06 06:53:56;;;;;;;6.28;5.05;;;22.30;79.90;;;;;;5067577;28;20200;-71
2022/06/06 06:56:38;;;;;;;6.05;4.70;;;22.40;79.80;;;;;;5082007;28;20548;-70
2022/06/06 06:59:13;;;;;;;6.43;4.43;;;22.40;79.20;;;;;;5073623;28;20239;-71
2022/06/06 07:10:23;;;;;;;5.32;4.82;;;22.60;79.70;;;;;;5072940;28;20217;-70
2022/06/06 07:13:05;;;;;;;4.90;4.50;;;22.60;79.70;;;;;;5073784;28;20236;-72
2022/06/06 07:15:40;;;;;;;4.32;4.03;;;22.70;79.70;;;;;;5066614;28;20256;-73
2022/06/06 07:18:11;;;;;;;5.35;4.40;;;22.80;79.60;;;;;;5075909;28;20208;-73
2022/06/06 07:20:41;;;;;;;4.28;3.88;;;22.90;79.50;;;;;;5075095;28;20197;-73
2022/06/06 07:23:12;;;;;;;5.10;3.30;;;23.00;78.60;;;;;;5075471;28;20221;-72
2022/06/06 07:25:41;;;;;;;4.20;3.80;;;23.00;77.50;;;;;;5076141;28;20307;-69
2022/06/06 07:28:12;;;;;;;5.22;3.53;;;23.00;76.80;;;;;;5068588;28;20212;-73
2022/06/06 07:30:42;;;;;;;3.28;2.97;;;23.10;76.90;;;;;;5068075;28;20253;-73
2022/06/06 07:33:44;;;;;;;6.18;3.65;;;23.20;76.40;;;;;;5075772;28;20209;-70
2022/06/06 07:36:21;;;;;;;3.72;3.42;;;23.30;76.50;;;;;;5068689;28;20200;-70
2022/06/06 07:39:07;;;;;;;4.00;3.28;;;23.40;76.10;;;;;;5075830;28;20741;-68
2022/06/06 07:41:49;;;;;;;3.33;3.10;;;23.50;75.50;;;;;;5068867;28;20213;-70
2022/06/06 07:44:30;;;;;;;4.60;2.92;;;23.60;74.90;;;;;;5073926;28;20574;-71
2022/06/06 07:47:06;;;;;;;3.80;3.28;;;23.60;74.10;;;;;;5065262;28;20202;-73
2022/06/06 07:49:41;;;;;;;6.53;3.30;;;23.70;74.30;;;;;;5069390;28;20216;-70
2022/06/06 07:52:17;;;;;;;5.95;3.22;;;23.80;73.90;;;;;;5070784;28;20679;-74
2022/06/06 07:54:53;;;;;;;3.47;2.80;;;23.90;72.40;;;;;;5065506;28;20303;-72
2022/06/06 07:57:28;;;;;;;3.17;2.38;;;23.90;71.50;;;;;;5075128;28;20687;-73
2022/06/06 08:00:02;;;;;;;2.05;1.85;;;23.90;70.30;;;;;;5074634;28;20212;-70
2022/06/06 08:02:49;;;;;;;2.60;2.40;;;23.90;68.80;;;;;;5070832;28;20205;-70
2022/06/06 08:05:30;;;;;;;2.15;1.70;;;24.00;69.80;;;;;;5072731;28;20208;-71
2022/06/06 08:08:07;;;;;;;2.97;2.45;;;24.00;68.20;;;;;;5075760;28;20739;-74
2022/06/06 08:10:41;;;;;;;3.85;2.70;;;24.00;67.50;;;;;;5072354;28;20209;-71
2022/06/06 08:13:31;;;;;;;2.45;2.25;;;24.10;66.80;;;;;;5075909;28;20201;-71
2022/06/06 08:16:19;;;;;;;3.80;2.25;;;24.10;67.30;;;;;;5069633;28;20229;-70
2022/06/06 08:19:28;;;;;;;5.15;2.53;;;24.20;67.50;;;;;;5065047;28;20209;-69
2022/06/06 08:21:55;;;;;;;3.83;2.47;;;24.30;67.80;;;;;;5075500;28;20205;-70
2022/06/06 08:24:28;;;;;;;2.67;2.47;;;24.40;67.50;;;;;;5070637;28;20237;-70
2022/06/06 08:26:58;;;;;;;3.20;2.33;;;24.50;66.80;;;;;;5072201;28;20264;-70
2022/06/06 08:29:27;;;;;;;5.90;3.28;;;24.60;66.00;;;;;;5080461;28;20229;-71
2022/06/06 08:31:55;;;;;;;2.10;2.00;;;24.80;64.60;;;;;;5084884;28;20206;-70
2022/06/06 08:34:22;;;;;;;3.17;2.22;;;25.00;63.50;;;;;;5076676;28;20205;-70
2022/06/06 08:37:14;;;;;;;2.70;2.20;;;25.10;61.60;;;;;;5075356;28;20704;-69
2022/06/06 08:39:48;;;;;;;2.67;2.30;;;25.20;60.80;;;;;;5072355;28;20212;-71
2022/06/06 08:42:32;;;;;;;2.28;1.85;;;25.40;60.50;;;;;;5083443;28;20652;-69
2022/06/06 08:45:43;;;;;;;3.90;1.90;;;25.50;59.20;;;;;;5074357;28;20219;-71
2022/06/06 08:48:33;;;;;;;2.00;1.80;;;25.60;58.40;;;;;;5045208;28;20232;-70
2022/06/06 08:51:04;;;;;;;2.03;1.92;;;25.70;58.20;;;;;;5074517;28;20205;-68
2022/06/06 08:54:02;;;;;;;2.25;2.03;;;25.70;58.20;;;;;;5074300;28;20676;-69
2022/06/06 08:56:56;;;;;;;6.47;1.70;;;25.80;58.50;;;;;;5071406;28;20220;-69
2022/06/06 09:00:11;;;;;;;2.20;1.70;;;25.90;58.10;;;;;;5064174;28;20599;-70
2022/06/06 09:03:19;;;;;;;1.95;1.85;;;25.90;55.40;;;;;;5070911;28;20217;-68
2022/06/06 09:06:34;;;;;;;2.65;2.45;;;26.00;55.30;;;;;;5069058;28;20575;-69
2022/06/06 09:09:38;;;;;;;2.17;2.08;;;26.10;56.00;;;;;;5023757;28;20194;-69
2022/06/06 09:12:48;;;;;;;2.30;2.10;;;26.30;56.50;;;;;;5074732;28;20255;-69
2022/06/06 09:15:49;;;;;;;2.40;2.15;;;26.50;57.20;;;;;;5077257;28;20201;-68
2022/06/06 09:18:55;;;;;;;2.20;1.90;;;26.60;56.80;;;;;;5077987;28;20224;-69
2022/06/06 09:21:58;;;;;;;4.38;1.98;;;26.80;56.30;;;;;;5083820;28;20205;-69
2022/06/06 09:25:13;;;;;;;3.03;2.25;;;26.90;55.80;;;;;;5064813;28;20744;-68
2022/06/06 09:28:11;;;;;;;3.53;1.90;;;27.00;55.70;;;;;;5059582;28;20233;-72
2022/06/06 09:31:14;;;;;;;2.42;2.22;;;27.10;55.80;;;;;;5065546;28;20217;-70
2022/06/06 09:34:17;;;;;;;2.10;2.00;;;27.20;55.70;;;;;;5026601;28;20216;-70
2022/06/06 09:36:59;;;;;;;2.15;1.95;;;27.30;55.80;;;;;;5075301;28;20279;-71
2022/06/06 09:39:36;;;;;;;2.03;1.92;;;27.40;55.00;;;;;;5077459;28;20201;-72
2022/06/06 09:42:18;;;;;;;2.00;1.80;;;27.40;54.40;;;;;;5079180;28;20205;-69
2022/06/06 09:45:18;;;;;;;3.05;2.00;;;27.30;54.40;;;;;;5094693;28;20212;-71
2022/06/06 09:48:27;;;;;;;2.33;1.80;;;27.40;54.90;;;;;;5065877;28;20209;-70
2022/06/06 09:51:33;;;;;;;2.60;1.98;;;27.40;54.40;;;;;;5051390;28;20201;-70
2022/06/06 10:01:05;;;;;;;2.75;2.10;;;27.40;54.40;;;;;;5077155;28;20651;-70
2022/06/06 10:04:01;;;;;;;2.63;2.42;;;27.60;55.00;;;;;;5069897;28;20213;-69
2022/06/06 10:07:05;;;;;;;3.30;3.00;;;27.70;54.80;;;;;;5067316;28;20202;-71
2022/06/06 10:09:50;;;;;;;2.35;2.15;;;27.70;55.10;;;;;;5078146;28;20268;-71
2022/06/06 10:12:44;;;;;;;2.53;2.33;;;27.70;55.00;;;;;;5091367;28;20590;-71
2022/06/06 10:15:41;;;;;;;3.35;1.83;;;27.70;54.40;;;;;;5069535;28;20197;-72
2022/06/06 10:18:26;;;;;;;2.40;2.17;;;27.50;53.80;;;;;;5078093;28;20243;-71
2022/06/06 10:21:23;;;;;;;4.75;2.50;;;27.50;54.10;;;;;;5075668;28;20205;-70
2022/06/06 10:24:23;;;;;;;2.25;2.15;;;27.50;54.50;;;;;;5049291;28;20233;-70
2022/06/06 10:27:03;;;;;;;3.25;2.50;;;27.60;54.80;;;;;;5078557;28;20204;-71
2022/06/06 10:30:12;;;;;;;2.88;2.58;;;27.60;54.30;;;;;;5079166;28;20251;-71
2022/06/06 10:33:16;;;;;;;2.30;2.20;;;27.60;54.40;;;;;;5065847;28;20210;-71
2022/06/06 10:36:21;;;;;;;2.05;1.95;;;27.70;53.50;;;;;;5054120;28;20240;-69
2022/06/06 10:39:30;;;;;;;5.22;2.38;;;27.60;53.40;;;;;;5052880;28;20705;-70
2022/06/06 10:42:25;;;;;;;1.95;1.85;;;27.50;53.60;;;;;;5054727;28;20201;-70
2022/06/06 10:45:12;;;;;;;3.20;2.03;;;27.50;54.00;;;;;;5063454;28;20700;-71
2022/06/06 10:48:05;;;;;;;3.15;2.00;;;27.40;53.30;;;;;;5066456;28;20491;-71
2022/06/06 10:53:47;;;;;;;2.42;2.22;;;27.50;52.80;;;;;;5075432;28;20197;-71
2022/06/06 10:56:47;;;;;;;2.28;2.17;;;27.40;52.20;;;;;;5076205;28;20204;-71
2022/06/06 10:59:51;;;;;;;2.95;2.38;;;27.40;52.70;;;;;;5070432;28;20206;-71
2022/06/06 11:02:49;;;;;;;3.22;2.60;;;27.50;53.00;;;;;;5073985;28;20201;-70
2022/06/06 11:05:44;;;;;;;3.33;2.35;;;27.80;53.50;;;;;;5075999;28;20784;-70
2022/06/06 11:08:34;;;;;;;2.90;2.70;;;28.00;53.40;;;;;;5074540;28;20728;-71
2022/06/06 11:11:49;;;;;;;3.08;2.47;;;28.00;53.90;;;;;;5076559;28;20205;-70
2022/06/06 11:14:29;;;;;;;2.70;2.50;;;28.10;54.20;;;;;;5075105;28;20201;-69
2022/06/06 11:17:35;;;;;;;3.63;3.15;;;28.10;54.20;;;;;;5063483;28;20241;-70
2022/06/06 11:20:54;;;;;;;3.42;3.13;;;28.10;54.90;;;;;;5077620;28;20197;-69
2022/06/06 11:23:26;;;;;;;3.20;2.80;;;28.20;55.20;;;;;;4995309;28;20211;-70
2022/06/06 11:26:19;;;;;;;3.78;2.80;;;28.20;54.90;;;;;;4988448;28;20223;-70
2022/06/06 11:29:25;;;;;;;2.67;2.45;;;28.20;54.50;;;;;;5047024;28;20237;-70
2022/06/06 11:32:11;;;;;;;3.47;2.53;;;28.20;54.50;;;;;;5075995;28;20201;-71
2022/06/06 11:35:17;;;;;;;3.33;3.10;;;28.40;54.80;;;;;;5065281;28;20810;-70
2022/06/06 11:38:25;;;;;;;3.20;3.00;;;28.60;54.70;;;;;;5081792;28;20201;-73
2022/06/06 11:41:29;;;;;;;3.30;3.00;;;28.80;54.80;;;;;;5068158;28;20202;-70
2022/06/06 11:44:13;;;;;;;2.97;2.78;;;28.80;54.10;;;;;;5073504;28;20229;-70
2022/06/06 11:47:34;;;;;;;4.47;2.53;;;28.80;54.10;;;;;;5074530;28;20315;-70
2022/06/06 11:50:46;;;;;;;4.30;2.85;;;28.70;52.80;;;;;;4998520;28;20228;-70
2022/06/06 11:54:02;;;;;;;3.45;2.80;;;28.80;52.80;;;;;;5065264;28;20204;-69
2022/06/06 11:57:06;;;;;;;3.53;3.22;;;29.00;54.10;;;;;;5081641;28;20213;-70
2022/06/06 12:00:07;;;;;;;2.72;2.60;;;29.00;54.60;;;;;;5071932;28;20219;-70
2022/06/06 12:02:57;;;;;;;4.28;3.30;;;28.90;55.30;;;;;;5071171;28;20212;-69
2022/06/06 12:05:48;;;;;;;4.53;2.75;;;28.80;55.30;;;;;;5067435;28;20232;-68
2022/06/06 12:08:36;;;;;;;3.58;2.53;;;28.90;55.40;;;;;;5076273;28;20212;-72
2022/06/06 12:11:34;;;;;;;3.00;2.60;;;28.90;55.40;;;;;;5074304;28;20565;-71
2022/06/06 12:14:17;;;;;;;2.60;2.40;;;28.90;54.90;;;;;;5068823;28;20274;-72
2022/06/06 12:16:55;;;;;;;2.80;2.60;;;29.00;54.50;;;;;;5061251;28;20242;-70
2022/06/06 12:19:55;;;;;;;2.30;2.20;;;29.10;54.00;;;;;;5071237;28;20688;-73
2022/06/06 12:22:45;;;;;;;3.08;2.45;;;29.10;53.80;;;;;;5022994;28;20216;-72
2022/06/06 12:25:53;;;;;;;4.22;2.63;;;29.20;54.00;;;;;;5074283;28;20233;-72
2022/06/06 12:28:56;;;;;;;3.10;2.20;;;29.20;53.40;;;;;;5082126;28;20223;-70
2022/06/06 12:31:37;;;;;;;3.58;2.53;;;29.30;53.50;;;;;;5046618;28;20213;-70
2022/06/06 12:34:10;;;;;;;2.70;2.42;;;29.30;53.20;;;;;;5067764;28;20332;-69
2022/06/06 12:36:47;;;;;;;3.00;2.10;;;29.40;53.10;;;;;;5073664;28;20232;-69
2022/06/06 12:39:26;;;;;;;3.55;2.25;;;29.30;52.70;;;;;;5084088;28;20662;-70
2022/06/06 12:42:02;;;;;;;2.45;2.25;;;29.20;52.60;;;;;;5079369;28;20205;-70
2022/06/06 12:44:53;;;;;;;4.25;2.28;;;29.10;53.00;;;;;;5074699;28;20212;-70
2022/06/06 12:47:41;;;;;;;4.30;2.75;;;29.00;53.50;;;;;;5094378;28;20212;-70
2022/06/06 12:50:23;;;;;;;4.40;2.53;;;28.90;53.90;;;;;;5082870;28;20201;-69
2022/06/06 12:53:16;;;;;;;4.85;3.40;;;29.00;54.00;;;;;;5073833;28;20612;-69
2022/06/06 12:56:16;;;;;;;6.50;2.42;;;29.20;54.00;;;;;;5074093;28;20201;-70
2022/06/06 12:58:45;;;;;;;5.15;2.30;;;29.30;53.40;;;;;;5085716;28;20292;-69
2022/06/06 13:01:39;;;;;;;4.38;2.20;;;29.40;53.10;;;;;;5081352;28;20209;-71
2022/06/06 13:04:35;;;;;;;3.35;2.20;;;29.30;52.90;;;;;;5076658;28;20284;-70
2022/06/06 13:07:18;;;;;;;2.67;2.40;;;29.20;52.70;;;;;;5083304;28;20213;-70
2022/06/06 13:10:03;;;;;;;3.17;2.13;;;29.10;53.10;;;;;;5090705;28;20208;-73
2022/06/06 13:12:49;;;;;;;4.75;2.53;;;29.20;53.40;;;;;;5082853;28;20213;-70
2022/06/06 13:15:24;;;;;;;2.92;2.28;;;29.20;53.20;;;;;;5071546;28;20200;-71
2022/06/06 13:18:07;;;;;;;2.97;2.65;;;29.00;53.30;;;;;;5074569;28;20208;-71
2022/06/06 13:20:46;;;;;;;2.92;2.70;;;28.80;53.50;;;;;;5080935;28;20227;-68
2022/06/06 13:23:41;;;;;;;2.80;2.50;;;28.60;53.90;;;;;;5071697;28;20642;-70
2022/06/06 13:26:31;;;;;;;2.78;2.60;;;28.60;54.50;;;;;;5080122;28;20225;-69
2022/06/06 13:28:59;;;;;;;2.88;2.30;;;28.60;54.60;;;;;;5066267;28;20308;-68
2022/06/06 13:31:41;;;;;;;2.38;1.80;;;28.60;54.80;;;;;;5077715;28;20210;-70
2022/06/06 13:34:22;;;;;;;1.90;1.80;;;28.60;53.30;;;;;;5079824;28;20641;-70
2022/06/06 13:37:06;;;;;;;2.97;1.90;;;28.70;52.00;;;;;;5079195;28;20228;-69
2022/06/06 13:39:59;;;;;;;2.25;1.90;;;28.80;51.20;;;;;;5072597;28;20585;-69
2022/06/06 13:42:48;;;;;;;3.42;2.13;;;28.80;51.10;;;;;;5080700;28;20213;-69
2022/06/06 13:45:27;;;;;;;3.17;2.10;;;28.80;50.70;;;;;;5080431;28;21545;-69
2022/06/06 13:48:17;;;;;;;1.98;1.88;;;28.70;50.50;;;;;;5080950;28;20227;-70
2022/06/06 13:50:57;;;;;;;3.00;1.95;;;28.60;50.40;;;;;;5067959;28;20669;-68
2022/06/06 13:53:58;;;;;;;1.83;1.73;;;28.60;50.40;;;;;;5067807;28;20216;-69
2022/06/06 13:56:56;;;;;;;2.08;1.92;;;28.60;50.40;;;;;;5076398;28;20212;-69
2022/06/06 13:59:50;;;;;;;2.17;1.70;;;28.70;50.10;;;;;;5057935;28;20217;-69
2022/06/06 14:02:36;;;;;;;2.00;1.90;;;28.80;50.10;;;;;;5074251;28;20740;-69
2022/06/06 14:05:20;;;;;;;4.85;2.20;;;28.90;50.20;;;;;;5076064;28;20212;-69
2022/06/06 14:08:02;;;;;;;5.95;2.50;;;28.90;50.60;;;;;;5076358;28;20236;-70
2022/06/06 14:10:42;;;;;;;3.25;2.50;;;28.90;51.00;;;;;;5073396;28;20254;-69
2022/06/06 14:13:17;;;;;;;2.08;1.90;;;28.90;51.20;;;;;;5064759;28;20217;-69
2022/06/06 14:15:46;;;;;;;1.95;1.85;;;28.80;51.30;;;;;;5076441;28;20238;-69
2022/06/06 14:18:21;;;;;;;2.08;1.98;;;28.60;51.00;;;;;;5075283;28;20203;-71
2022/06/06 14:20:52;;;;;;;1.90;1.80;;;28.50;50.70;;;;;;5077742;28;20254;-69
2022/06/06 14:23:21;;;;;;;2.92;1.90;;;28.20;50.80;;;;;;5077057;28;20205;-69
2022/06/06 14:25:51;;;;;;;2.92;1.80;;;28.00;50.50;;;;;;5077361;28;20280;-69